createdAt,value
2022-12-14T00:04:24.646Z,44.60
2022-12-14T00:10:28.004Z,45.55
2022-12-14T00:16:37.176Z,51.15
2022-12-14T00:22:44.376Z,42.17
2022-12-14T00:35:32.915Z,44.20
2022-12-14T00:41:35.259Z,37.88
2022-12-14T00:47:40.691Z,40.13
2022-12-14T00:53:44.740Z,44.35
2022-12-14T00:59:46.562Z,43.85
2022-12-14T01:05:49.108Z,37.85
2022-12-14T01:11:51.946Z,37.28
2022-12-14T01:17:53.847Z,36.92
2022-12-14T01:24:02.085Z,42.78
2022-12-14T01:30:04.831Z,45.03
2022-12-14T01:36:12.398Z,42.97
2022-12-14T01:42:15.910Z,41.70
2022-12-14T01:48:18.203Z,39.38
2022-12-14T01:54:20.822Z,30.05
2022-12-14T02:00:23.290Z,33.10
2022-12-14T02:06:29.887Z,33.65
2022-12-14T02:12:47.975Z,30.80
2022-12-14T02:18:49.784Z,28.30
2022-12-14T02:25:00.877Z,25.23
2022-12-14T02:31:27.997Z,31.08
2022-12-14T02:44:18.812Z,26.88
2022-12-14T02:50:23.887Z,39.80
2022-12-14T02:56:36.676Z,68.20
2022-12-14T03:02:42.210Z,175.13
2022-12-14T03:08:47.096Z,30.10
2022-12-14T03:14:52.382Z,37.38
2022-12-14T03:20:56.362Z,30.65
2022-12-14T03:27:25.520Z,34.50
2022-12-14T03:33:29.995Z,31.67
2022-12-14T03:39:35.044Z,34.30
2022-12-14T03:46:07.880Z,35.53
2022-12-14T03:52:36.493Z,32.58
2022-12-14T03:59:00.321Z,35.78
2022-12-14T04:05:30.954Z,32.88
2022-12-14T04:11:57.881Z,37.38
2022-12-14T04:18:24.518Z,35.38
2022-12-14T04:25:12.973Z,27.67
2022-12-14T04:31:19.263Z,41.97
2022-12-14T04:37:24.714Z,35.17
2022-12-14T04:43:34.249Z,33.25
2022-12-14T04:49:50.275Z,46.30
2022-12-14T04:56:26.845Z,31.10
2022-12-14T05:03:04.012Z,33.30
2022-12-14T05:09:11.608Z,31.35
2022-12-14T05:15:23.322Z,29.08
2022-12-14T05:21:43.689Z,24.42
2022-12-14T05:27:46.192Z,29.92
2022-12-14T05:33:47.973Z,26.08
2022-12-14T05:39:49.886Z,28.20
2022-12-14T05:45:58.879Z,28.95
2022-12-14T05:52:00.888Z,27.25
2022-12-14T05:58:02.671Z,28.27
2022-12-14T06:04:04.746Z,29.08
2022-12-14T06:10:06.924Z,27.48
2022-12-14T06:16:21.169Z,36.88
2022-12-14T06:22:23.101Z,30.17
2022-12-14T06:28:24.954Z,30.38
2022-12-14T06:34:28.799Z,27.70
2022-12-14T06:40:30.681Z,31.20
2022-12-14T06:46:33.262Z,31.73
2022-12-14T06:52:35.094Z,30.13
2022-12-14T06:58:37.390Z,28.08
2022-12-14T07:04:41.355Z,34.40
2022-12-14T07:10:43.148Z,26.35
2022-12-14T07:16:48.353Z,29.75
2022-12-14T07:22:50.779Z,29.27
2022-12-14T07:28:53.137Z,28.92
2022-12-14T07:34:54.957Z,31.48
2022-12-14T07:41:05.688Z,27.38
2022-12-14T07:47:07.612Z,30.10
2022-12-14T07:53:09.418Z,29.95
2022-12-14T07:59:15.308Z,24.25
2022-12-14T08:05:17.259Z,25.43
2022-12-14T08:11:22.164Z,25.63
2022-12-14T08:17:23.978Z,24.52
2022-12-14T08:23:25.826Z,25.85
2022-12-14T08:29:27.611Z,25.48
2022-12-14T08:35:29.433Z,25.50
2022-12-14T08:41:31.588Z,25.48
2022-12-14T08:47:33.379Z,27.02
2022-12-14T08:53:36.602Z,23.90
2022-12-14T09:00:00.872Z,20.02
2022-12-14T09:06:06.496Z,22.65
2022-12-14T09:12:08.340Z,23.70
2022-12-14T09:18:10.361Z,24.40
2022-12-14T09:24:12.161Z,23.95
2022-12-14T09:30:14.030Z,27.27
2022-12-14T09:36:27.813Z,25.40
2022-12-14T09:42:43.312Z,25.45
2022-12-14T09:48:53.569Z,22.45
2022-12-14T09:54:57.035Z,28.45
2022-12-14T10:01:22.057Z,30.60
2022-12-14T10:07:38.845Z,26.48
2022-12-14T10:13:59.623Z,22.80
2022-12-14T10:20:14.736Z,21.88
2022-12-14T10:26:19.881Z,20.13
2022-12-14T10:32:30.201Z,20.90
2022-12-14T10:38:36.830Z,26.30
2022-12-14T10:45:39.583Z,23.50
2022-12-14T10:51:39.713Z,21.83
2022-12-14T10:57:41.626Z,26.55
2022-12-14T11:03:53.675Z,24.70
2022-12-14T11:10:20.365Z,26.75
2022-12-14T11:16:37.667Z,24.47
2022-12-14T11:22:47.956Z,23.38
2022-12-14T11:28:58.563Z,22.83
2022-12-14T11:35:00.487Z,23.27
2022-12-14T11:41:10.762Z,24.88
2022-12-14T11:47:15.595Z,28.23
2022-12-14T11:53:19.801Z,24.85
2022-12-14T11:59:22.733Z,25.08
2022-12-14T12:05:24.757Z,26.63
2022-12-14T12:11:34.710Z,26.67
2022-12-14T12:17:43.247Z,23.30
2022-12-14T12:23:54.976Z,23.02
2022-12-14T12:30:07.108Z,22.17
2022-12-14T12:36:09.861Z,23.30
2022-12-14T12:42:32.998Z,24.27
2022-12-14T12:48:54.302Z,24.73
2022-12-14T12:55:01.566Z,32.10
2022-12-14T13:07:42.085Z,24.67
2022-12-14T13:13:49.409Z,25.95
2022-12-14T13:19:54.953Z,30.60
2022-12-14T13:26:56.650Z,28.80
2022-12-14T13:33:08.900Z,32.15
2022-12-14T13:39:10.674Z,37.42
2022-12-14T13:45:43.556Z,39.45
2022-12-14T13:51:50.460Z,41.65
2022-12-14T14:04:14.154Z,35.15
2022-12-14T14:10:36.231Z,40.35
2022-12-14T14:16:44.185Z,36.65
2022-12-14T14:23:15.934Z,37.38
2022-12-14T14:29:24.776Z,33.13
2022-12-14T14:35:37.814Z,33.97
2022-12-14T14:41:43.490Z,40.13
2022-12-14T14:47:56.508Z,37.75
2022-12-14T15:01:16.286Z,33.00
2022-12-14T15:07:42.267Z,30.42
2022-12-14T15:14:06.707Z,30.35
2022-12-14T15:20:24.558Z,31.85
2022-12-14T15:26:33.850Z,33.67
2022-12-14T15:32:35.754Z,31.10
2022-12-14T15:38:37.932Z,38.58
2022-12-14T15:44:48.167Z,31.10
2022-12-14T15:50:55.119Z,37.55
2022-12-14T15:56:58.762Z,31.63
2022-12-14T16:03:08.982Z,33.40
2022-12-14T16:09:32.305Z,30.23
2022-12-14T16:15:34.525Z,35.85
2022-12-14T16:21:36.591Z,30.35
2022-12-14T16:27:42.372Z,29.38
2022-12-14T16:33:44.651Z,28.63
2022-12-14T16:39:49.591Z,32.53
2022-12-14T16:46:03.352Z,31.35
2022-12-14T16:52:21.248Z,29.83
2022-12-14T16:58:23.239Z,31.67
2022-12-14T17:04:33.657Z,37.35
2022-12-14T17:10:35.553Z,33.53
2022-12-14T17:16:38.714Z,42.33
2022-12-14T17:22:41.310Z,34.00
2022-12-14T17:28:43.097Z,28.77
2022-12-14T17:34:48.272Z,38.15
2022-12-14T17:40:51.225Z,50.72
2022-12-14T17:46:53.335Z,48.35
2022-12-14T17:52:55.328Z,34.20
2022-12-14T17:58:57.142Z,30.30
2022-12-14T18:04:59.559Z,43.20
2022-12-14T18:11:07.625Z,40.08
2022-12-14T18:17:14.327Z,47.05
2022-12-14T18:23:17.209Z,43.08
2022-12-14T18:29:19.010Z,33.95
2022-12-14T18:35:24.290Z,44.88
2022-12-14T18:41:27.457Z,46.53
2022-12-14T18:47:43.238Z,50.58
2022-12-14T18:53:45.121Z,55.38
2022-12-14T18:59:46.900Z,64.38
2022-12-14T19:05:48.877Z,49.10
2022-12-14T19:11:50.635Z,45.47
2022-12-14T19:17:53.013Z,50.83
2022-12-14T19:23:55.762Z,68.80
2022-12-14T19:29:57.597Z,67.60
2022-12-14T19:36:00.223Z,80.03
2022-12-14T19:42:02.081Z,78.10
2022-12-14T19:48:06.760Z,68.47
2022-12-14T19:54:12.039Z,50.80
2022-12-14T20:00:14.450Z,42.97
2022-12-14T20:06:16.412Z,48.45
2022-12-14T20:12:18.287Z,44.13
2022-12-14T20:18:21.570Z,51.60
2022-12-14T20:24:23.376Z,45.92
2022-12-14T20:30:25.405Z,54.55
2022-12-14T20:36:28.763Z,50.55
2022-12-14T20:42:30.780Z,57.35
2022-12-14T20:48:33.084Z,56.38
2022-12-14T20:54:34.950Z,49.13
2022-12-14T21:00:37.385Z,50.03
2022-12-14T21:06:41.929Z,49.20
2022-12-14T21:12:44.532Z,45.97
2022-12-14T21:18:46.422Z,61.38
2022-12-14T21:25:06.668Z,61.30
2022-12-14T21:31:15.595Z,64.68
2022-12-14T21:37:18.210Z,48.28
2022-12-14T21:43:20.066Z,47.90
2022-12-14T21:49:22.350Z,43.03
2022-12-14T21:55:24.175Z,47.15
2022-12-14T22:01:26.022Z,55.33
2022-12-14T22:07:33.192Z,54.80
2022-12-14T22:13:35.027Z,57.45
2022-12-14T22:19:36.907Z,69.65
2022-12-14T22:25:38.770Z,75.15
2022-12-14T22:31:41.115Z,69.07
2022-12-14T22:37:42.941Z,71.18
2022-12-14T22:43:45.052Z,71.68
2022-12-14T22:49:47.189Z,75.82
2022-12-14T22:55:49.942Z,71.18
2022-12-14T23:01:52.815Z,65.40
2022-12-14T23:07:55.763Z,68.47
2022-12-14T23:14:16.135Z,72.15
2022-12-14T23:20:36.647Z,69.72
2022-12-14T23:26:57.210Z,57.42
2022-12-14T23:33:17.429Z,62.70
2022-12-14T23:39:38.223Z,64.50
2022-12-14T23:45:59.010Z,71.68
2022-12-14T23:52:19.281Z,58.70
2022-12-14T23:58:39.868Z,59.45
